Time;durP1;ratioP1;P1;durP2;ratioP2;P2;SDS_P1;SDS_P2;PMS_P1;PMS_P2;Temp;Humidity;BMP_temperature;BMP_pressure;BME280_temperature;BME280_humidity;BME280_pressure;Samples;Min_cycle;Max_cycle;Signal;HPM_P1;HPM_P2
2022/05/12 00:01:58;;;;;;;8.52;1.90;;;;;;;16.04;65.48;101406.50;5040396;28;20504;-48
2022/05/12 00:04:27;;;;;;;9.52;1.83;;;;;;;16.00;65.25;101413.34;5038816;28;20036;-47
2022/05/12 00:06:53;;;;;;;7.15;1.50;;;;;;;15.98;65.11;101411.59;5042001;28;20120;-47
2022/05/12 00:09:18;;;;;;;7.85;1.73;;;;;;;16.03;64.88;101417.75;5046994;28;20124;-46
2022/05/12 00:11:44;;;;;;;10.68;2.30;;;;;;;15.96;64.73;101418.50;5044721;28;20029;-46
2022/05/12 00:14:10;;;;;;;6.18;1.52;;;;;;;15.90;65.10;101419.28;5039915;28;20037;-49
2022/05/12 00:16:36;;;;;;;8.23;1.73;;;;;;;15.88;64.85;101420.09;5041073;28;20116;-47
2022/05/12 00:19:02;;;;;;;6.63;1.70;;;;;;;15.80;64.98;101426.03;5044863;28;20086;-50
2022/05/12 00:21:27;;;;;;;5.78;1.48;;;;;;;15.81;64.48;101429.50;5044676;28;20041;-45
2022/05/12 00:23:59;;;;;;;7.32;1.63;;;;;;;15.80;64.60;101428.63;5042868;28;20488;-48
2022/05/12 00:26:31;;;;;;;5.35;1.35;;;;;;;15.86;64.27;101432.16;5039613;28;20508;-45
2022/05/12 00:29:00;;;;;;;6.00;1.52;;;;;;;15.75;64.11;101437.19;5042375;28;20098;-45
2022/05/12 00:31:30;;;;;;;11.48;1.90;;;;;;;15.73;64.09;101439.75;5039392;28;20098;-47
2022/05/12 00:33:56;;;;;;;5.82;1.73;;;;;;;15.64;64.33;101438.72;5039625;28;20036;-45
2022/05/12 00:36:21;;;;;;;5.90;1.45;;;;;;;15.63;64.46;101444.75;5041611;28;20029;-47
2022/05/12 00:38:47;;;;;;;6.43;2.00;;;;;;;15.57;64.73;101445.50;5042169;28;20511;-47
2022/05/12 00:41:12;;;;;;;7.40;1.60;;;;;;;15.48;64.25;101459.19;5041873;28;20281;-46
2022/05/12 00:43:40;;;;;;;6.47;1.73;;;;;;;15.48;64.93;101461.78;5043886;28;20413;-47
2022/05/12 00:46:10;;;;;;;5.82;2.13;;;;;;;15.46;64.62;101452.22;5041288;28;20036;-49
2022/05/12 00:48:35;;;;;;;6.22;1.50;;;;;;;15.40;64.85;101457.28;5043723;28;20057;-45
2022/05/12 00:51:02;;;;;;;6.70;1.45;;;;;;;15.29;65.14;101463.16;5043377;28;20240;-46
2022/05/12 00:53:30;;;;;;;6.07;1.50;;;;;;;15.33;64.87;101458.03;5039680;28;20033;-46
2022/05/12 00:55:57;;;;;;;5.87;1.77;;;;;;;15.35;64.63;101456.31;5041662;28;20083;-46
2022/05/12 00:58:23;;;;;;;5.95;1.40;;;;;;;15.27;64.81;101467.44;5040846;28;20040;-48
2022/05/12 01:00:48;;;;;;;5.70;1.50;;;;;;;15.27;64.77;101462.25;5039240;28;20032;-45
2022/05/12 01:03:21;;;;;;;6.13;1.50;;;;;;;15.36;64.18;101473.66;5039279;28;20485;-50
2022/05/12 01:05:47;;;;;;;5.00;1.20;;;;;;;15.18;65.06;101463.81;5039126;28;20024;-48
2022/05/12 01:08:15;;;;;;;4.63;1.58;;;;;;;15.13;64.87;101470.63;5041599;28;20519;-45
2022/05/12 01:10:44;;;;;;;3.70;1.40;;;;;;;15.03;65.09;101477.31;5042664;28;20501;-48
2022/05/12 01:13:10;;;;;;;4.35;1.10;;;;;;;15.03;64.74;101473.00;5040875;28;20102;-46
2022/05/12 01:15:35;;;;;;;6.50;1.65;;;;;;;14.96;64.85;101484.09;5040508;28;20028;-47
2022/05/12 01:18:17;;;;;;;4.82;1.27;;;;;;;14.97;64.86;101483.25;5041386;28;20036;-45
2022/05/12 01:20:44;;;;;;;6.13;1.27;;;;;;;14.91;65.09;101480.53;5042281;28;20029;-46
2022/05/12 01:23:25;;;;;;;3.92;0.90;;;;;;;14.94;64.76;101482.34;5041018;28;20052;-46
2022/05/12 01:25:55;;;;;;;3.85;1.10;;;;;;;14.89;64.63;101492.59;5054742;28;20112;-48
2022/05/12 01:28:21;;;;;;;5.68;1.33;;;;;;;14.82;64.81;101488.13;5041053;28;20033;-45
2022/05/12 01:30:47;;;;;;;4.10;1.17;;;;;;;14.80;64.86;101501.88;5043587;28;20044;-47
2022/05/12 01:33:12;;;;;;;3.03;0.88;;;;;;;14.80;64.88;101501.88;5041318;28;20585;-47
2022/05/12 01:35:38;;;;;;;2.85;1.10;;;;;;;14.84;64.74;101501.97;5037411;28;20039;-46
2022/05/12 01:38:03;;;;;;;5.63;1.10;;;;;;;14.76;64.94;101495.78;5042918;28;20128;-48
2022/05/12 01:40:29;;;;;;;2.97;1.15;;;;;;;14.70;65.53;101509.47;5042413;28;20070;-46
2022/05/12 01:42:54;;;;;;;4.75;1.30;;;;;;;14.63;65.45;101512.75;5042985;28;20036;-46
2022/05/12 01:45:21;;;;;;;4.22;1.15;;;;;;;14.64;65.33;101518.81;5040287;28;20055;-46
2022/05/12 01:47:47;;;;;;;3.10;1.05;;;;;;;14.54;65.58;101516.84;5041376;28;20523;-46
2022/05/12 01:50:14;;;;;;;4.18;1.10;;;;;;;14.55;65.84;101510.84;5041551;28;20530;-45
2022/05/12 01:52:44;;;;;;;3.83;1.15;;;;;;;14.53;65.84;101521.16;5040312;28;20036;-46
2022/05/12 01:55:15;;;;;;;2.78;0.82;;;;;;;14.52;65.68;101521.13;5040971;28;20519;-45
2022/05/12 01:57:43;;;;;;;2.95;1.17;;;;;;;14.46;65.61;101517.56;5040303;28;20503;-47
2022/05/12 02:00:12;;;;;;;6.97;1.25;;;;;;;14.46;65.88;101516.66;5040395;28;20064;-47
2022/05/12 02:02:38;;;;;;;6.70;1.33;;;;;;;14.48;65.58;101526.22;5038992;28;20037;-48
2022/05/12 02:05:09;;;;;;;4.15;1.13;;;;;;;14.36;66.08;101520.75;5038368;28;20039;-46
2022/05/12 02:07:38;;;;;;;3.60;0.95;;;;;;;14.30;66.08;101538.69;5042200;28;20068;-46
2022/05/12 02:10:05;;;;;;;;;;;;;;;14.63;64.18;101533.47;5046137;28;20102;-45
2022/05/12 02:12:31;;;;;;;4.78;1.25;;;;;;;14.29;65.99;101546.44;5045715;28;20293;-46
2022/05/12 02:14:56;;;;;;;3.97;1.27;;;;;;;14.29;66.10;101543.84;5043631;28;20029;-46
2022/05/12 02:17:22;;;;;;;4.95;1.38;;;;;;;14.27;66.06;101542.94;5042579;28;20056;-45
2022/05/12 02:19:47;;;;;;;4.95;1.33;;;;;;;14.13;66.30;101552.94;5048774;28;20068;-45
2022/05/12 02:22:12;;;;;;;5.80;1.30;;;;;;;14.04;66.78;101557.91;5042974;28;20041;-46
2022/05/12 02:24:38;;;;;;;6.50;1.38;;;;;;;14.07;66.87;101553.66;5042403;28;20033;-45
2022/05/12 02:27:03;;;;;;;2.15;1.05;;;;;;;13.93;67.21;101552.44;5045018;28;20044;-47
2022/05/12 02:29:29;;;;;;;6.45;1.38;;;;;;;13.84;67.41;101560.00;5060731;28;20064;-46
2022/05/12 02:31:54;;;;;;;4.18;1.20;;;;;;;13.86;67.57;101563.47;5043569;28;20025;-45
2022/05/12 02:34:19;;;;;;;3.83;1.17;;;;;;;13.88;67.52;101562.66;5043239;28;20047;-45
2022/05/12 02:36:59;;;;;;;6.53;1.23;;;;;;;13.78;68.01;101571.03;5042762;28;20471;-45
2022/05/12 02:39:27;;;;;;;6.35;1.58;;;;;;;13.82;67.87;101575.44;5040850;28;20527;-46
2022/05/12 02:41:52;;;;;;;5.53;1.67;;;;;;;13.71;68.27;101579.47;5046676;28;20126;-46
2022/05/12 02:44:17;;;;;;;6.40;1.65;;;;;;;13.71;68.39;101578.56;5041149;28;20098;-46
2022/05/12 02:46:43;;;;;;;6.60;1.50;;;;;;;13.67;68.50;101575.91;5043912;28;20029;-44
2022/05/12 02:49:09;;;;;;;5.45;1.83;;;;;;;13.76;68.20;101585.63;5044824;28;20025;-45
2022/05/12 02:51:34;;;;;;;4.30;1.60;;;;;;;13.63;68.55;101592.16;5041121;28;20040;-45
2022/05/12 02:53:59;;;;;;;8.20;1.95;;;;;;;13.66;68.48;101591.41;5043405;28;21471;-45
2022/05/12 02:56:26;;;;;;;9.77;1.70;;;;;;;13.63;68.81;101596.47;5042928;28;20056;-44
2022/05/12 02:58:51;;;;;;;6.03;1.85;;;;;;;13.56;69.88;101585.09;5042095;28;20401;-45
2022/05/12 03:01:16;;;;;;;6.68;1.85;;;;;;;13.61;69.27;101596.44;5043859;28;20028;-45
2022/05/12 03:03:42;;;;;;;6.15;1.90;;;;;;;13.63;69.30;101591.28;5044839;28;20032;-50
2022/05/12 03:06:07;;;;;;;5.70;1.98;;;;;;;13.63;68.96;101593.88;5039747;28;20032;-47
2022/05/12 03:08:33;;;;;;;8.32;1.85;;;;;;;13.56;69.85;101594.56;5043269;28;20036;-46
2022/05/12 03:10:58;;;;;;;9.70;2.40;;;;;;;13.50;69.81;101604.72;5042396;28;20025;-48
2022/05/12 03:13:23;;;;;;;12.02;2.53;;;;;;;13.48;69.57;101596.06;5045154;28;20374;-47
2022/05/12 03:15:49;;;;;;;7.50;2.03;;;;;;;13.53;69.65;101600.53;5043573;28;20064;-46
2022/05/12 03:18:14;;;;;;;8.80;2.30;;;;;;;13.49;69.92;101597.81;5039169;28;20408;-45
2022/05/12 03:20:40;;;;;;;11.70;2.95;;;;;;;13.50;70.25;101600.41;5042220;28;20037;-47
2022/05/12 03:23:05;;;;;;;9.40;2.30;;;;;;;13.54;70.15;101609.16;5043162;28;20025;-46
2022/05/12 03:25:31;;;;;;;10.10;2.50;;;;;;;13.48;70.15;101598.66;5042912;28;20036;-45
2022/05/12 03:27:57;;;;;;;10.45;2.72;;;;;;;13.45;70.29;101596.84;5041727;28;20124;-46
2022/05/12 03:30:24;;;;;;;13.77;2.75;;;;;;;13.48;70.58;101608.97;5042131;28;20560;-45
2022/05/12 03:32:50;;;;;;;13.02;3.20;;;;;;;13.38;71.02;101613.88;5043241;28;20032;-45
2022/05/12 03:35:15;;;;;;;14.48;3.20;;;;;;;13.35;70.81;101611.22;5042903;28;20468;-50
2022/05/12 03:37:42;;;;;;;9.60;2.80;;;;;;;13.38;70.74;101624.19;5043605;28;20036;-48
2022/05/12 03:40:09;;;;;;;12.38;3.45;;;;;;;13.31;71.30;101624.88;5045874;28;20032;-45
2022/05/12 03:42:35;;;;;;;12.93;3.92;;;;;;;13.29;71.55;101623.94;5044054;28;20108;-46
2022/05/12 03:45:00;;;;;;;11.93;3.92;;;;;;;13.33;71.52;101633.53;5043699;28;20136;-46
2022/05/12 03:47:30;;;;;;;17.48;4.00;;;;;;;13.36;71.56;101637.91;5044335;28;20037;-46
2022/05/12 03:49:59;;;;;;;16.20;4.25;;;;;;;13.27;72.11;101641.09;5040093;28;20017;-46
2022/05/12 03:52:24;;;;;;;14.18;4.60;;;;;;;13.27;72.22;101638.50;5042654;28;20052;-46
2022/05/12 03:54:51;;;;;;;11.77;4.55;;;;;;;13.32;72.54;101649.84;5040805;28;20029;-45
2022/05/12 03:57:18;;;;;;;13.23;4.70;;;;;;;13.26;72.80;101646.22;5042649;28;20060;-45
2022/05/12 03:59:44;;;;;;;17.20;5.55;;;;;;;13.29;72.98;101648.91;5040591;28;20115;-45
2022/05/12 04:02:13;;;;;;;18.88;5.55;;;;;;;13.27;73.14;101648.84;5043317;28;20487;-45
2022/05/12 04:04:39;;;;;;;15.57;5.38;;;;;;;13.30;73.30;101654.13;5039775;28;20128;-46
2022/05/12 04:07:05;;;;;;;16.42;5.63;;;;;;;13.31;73.14;101661.03;5043274;28;20043;-45
2022/05/12 04:09:30;;;;;;;17.20;6.10;;;;;;;13.28;73.32;101657.47;5040341;28;20116;-47
2022/05/12 04:11:56;;;;;;;15.98;6.15;;;;;;;13.22;73.71;101665.03;5058077;28;20063;-46
2022/05/12 04:14:21;;;;;;;16.05;5.82;;;;;;;13.20;73.74;101667.53;5042745;28;20592;-46
2022/05/12 04:16:47;;;;;;;18.05;6.28;;;;;;;13.22;73.59;101672.78;5041563;28;20033;-48
2022/05/12 04:19:13;;;;;;;17.77;7.10;;;;;;;13.25;73.94;101666.00;5043012;28;20028;-45
2022/05/12 04:21:38;;;;;;;17.27;7.35;;;;;;;13.26;74.12;101669.47;5042764;28;20512;-47
2022/05/12 04:24:06;;;;;;;17.55;7.50;;;;;;;13.23;74.58;101667.69;5042910;28;20071;-47
2022/05/12 04:26:37;;;;;;;19.17;8.20;;;;;;;13.22;74.46;101676.22;5042616;28;20627;-45
2022/05/12 04:29:04;;;;;;;18.98;7.55;;;;;;;13.22;74.37;101683.97;5043682;28;20094;-44
2022/05/12 04:31:30;;;;;;;21.35;8.02;;;;;;;13.18;74.87;101689.88;5036149;28;20037;-44
2022/05/12 04:36:40;;;;;;;21.73;8.65;;;;;;;13.17;75.10;101697.56;5040538;28;20742;-44
2022/05/12 04:39:06;;;;;;;18.42;7.28;;;;;;;13.20;75.25;101701.13;5038442;28;20029;-45
2022/05/12 04:41:32;;;;;;;17.88;8.02;;;;;;;13.13;75.64;101707.78;5042308;28;20125;-48
2022/05/12 04:43:58;;;;;;;19.80;8.55;;;;;;;13.15;75.73;101710.41;5040775;28;20468;-44
2022/05/12 04:46:25;;;;;;;20.05;8.48;;;;;;;13.15;75.97;101703.53;5042138;28;20040;-46
2022/05/12 04:48:51;;;;;;;21.50;8.73;;;;;;;13.18;76.22;101710.53;5042783;28;20477;-46
2022/05/12 04:51:17;;;;;;;19.40;8.32;;;;;;;13.20;75.92;101706.28;5039983;28;20102;-46
2022/05/12 04:53:42;;;;;;;20.83;9.13;;;;;;;13.21;76.32;101709.75;5040842;28;20075;-48
2022/05/12 04:56:08;;;;;;;23.50;9.70;;;;;;;13.26;76.36;101719.41;5039497;28;20060;-45
2022/05/12 04:58:33;;;;;;;19.05;8.82;;;;;;;13.29;76.36;101723.81;5038788;28;20544;-45
2022/05/12 05:00:58;;;;;;;17.55;8.73;;;;;;;13.30;76.80;101723.84;5032712;28;20513;-45
2022/05/12 05:03:24;;;;;;;20.33;9.50;;;;;;;13.34;77.00;101724.81;5037386;28;20045;-44
2022/05/12 05:05:50;;;;;;;20.58;10.15;;;;;;;13.33;77.19;101725.63;5024632;28;20056;-45
2022/05/12 05:08:18;;;;;;;20.88;10.43;;;;;;;13.40;77.06;101728.44;5040376;28;20036;-47
2022/05/12 05:10:43;;;;;;;23.08;10.15;;;;;;;13.48;77.11;101738.16;5040420;28;20108;-45
2022/05/12 05:13:09;;;;;;;23.35;10.23;;;;;;;13.50;77.01;101739.06;5036290;28;20048;-46
2022/05/12 05:15:35;;;;;;;20.77;10.52;;;;;;;13.52;77.19;101752.91;5033776;28;20035;-48
2022/05/12 05:18:01;;;;;;;23.92;11.27;;;;;;;13.61;76.88;101748.03;5043662;28;20049;-44
2022/05/12 05:20:30;;;;;;;26.95;12.00;;;;;;;13.64;76.86;101748.97;5041752;28;20060;-44
2022/05/12 05:22:56;;;;;;;29.40;12.55;;;;;;;13.65;76.73;101755.94;5038642;28;20025;-45
2022/05/12 05:25:22;;;;;;;27.35;12.07;;;;;;;13.73;77.14;101756.13;5038506;28;20037;-45
2022/05/12 05:27:48;;;;;;;23.95;12.38;;;;;;;13.76;77.04;101745.00;5038151;28;20091;-47
2022/05/12 05:30:18;;;;;;;27.65;11.50;;;;;;;13.85;76.72;101756.50;5038980;28;20420;-44
2022/05/12 05:32:43;;;;;;;27.50;12.65;;;;;;;13.88;76.79;101760.88;5036507;28;20056;-46
2022/05/12 05:35:09;;;;;;;24.02;12.77;;;;;;;14.02;76.33;101767.31;5039022;28;20060;-44
2022/05/12 05:37:36;;;;;;;25.95;13.18;;;;;;;13.99;76.78;101766.34;5037128;28;20493;-44
2022/05/12 05:40:04;;;;;;;28.27;13.27;;;;;;;14.10;76.72;101777.88;5040946;28;20040;-48
2022/05/12 05:42:30;;;;;;;30.15;13.95;;;;;;;14.17;76.44;101780.66;5043911;28;20104;-45
2022/05/12 05:44:55;;;;;;;27.08;13.52;;;;;;;14.20;76.94;101788.53;5045397;28;20123;-45
2022/05/12 05:47:21;;;;;;;33.58;13.35;;;;;;;14.26;76.63;101787.84;5042823;28;20036;-45
2022/05/12 05:49:46;;;;;;;28.30;14.43;;;;;;;14.32;76.56;101792.25;5045657;28;20039;-44
2022/05/12 05:54:56;;;;;;;27.98;14.20;;;;;;;14.46;76.76;101806.47;5044995;28;20086;-45
2022/05/12 05:57:27;;;;;;;26.83;13.98;;;;;;;14.60;76.44;101806.88;5044710;28;20028;-45
2022/05/12 05:59:56;;;;;;;25.15;14.93;;;;;;;14.65;76.16;101805.28;5042278;28;20035;-46
2022/05/12 06:02:22;;;;;;;;;;;;;;;14.89;74.43;101816.28;5045705;28;20041;-45
2022/05/12 06:04:48;;;;;;;28.30;13.82;;;;;;;14.81;75.38;101812.63;5038640;28;20373;-46
2022/05/12 06:07:13;;;;;;;27.20;14.57;;;;;;;14.82;75.33;101819.56;5044187;28;20029;-47
2022/05/12 06:09:41;;;;;;;26.00;14.07;;;;;;;14.92;75.02;101824.09;5044206;28;20043;-48
2022/05/12 06:12:08;;;;;;;26.17;14.25;;;;;;;15.03;74.67;101826.97;5041546;28;20029;-45
2022/05/12 06:14:33;;;;;;;29.15;13.82;;;;;;;15.15;74.58;101831.59;5043310;28;20037;-47
2022/05/12 06:16:59;;;;;;;26.55;14.43;;;;;;;15.21;74.40;101836.91;5040694;28;20563;-44
2022/05/12 06:19:24;;;;;;;25.98;13.93;;;;;;;15.25;73.94;101837.03;5047158;28;20128;-45
2022/05/12 06:21:50;;;;;;;23.55;14.02;;;;;;;15.40;73.53;101833.94;5044768;28;20039;-45
2022/05/12 06:24:15;;;;;;;26.38;13.60;;;;;;;15.45;73.67;101837.50;5044858;28;20033;-47
2022/05/12 06:26:40;;;;;;;25.88;14.20;;;;;;;15.63;72.87;101841.41;5042366;28;20044;-48
2022/05/12 06:29:06;;;;;;;24.33;13.27;;;;;;;15.68;72.91;101840.69;5044871;28;20079;-47
2022/05/12 06:31:33;;;;;;;22.27;12.52;;;;;;;15.85;72.88;101847.97;5048788;28;20029;-49
2022/05/12 06:33:59;;;;;;;23.48;12.90;;;;;;;15.92;71.46;101852.44;5048006;28;20100;-47
2022/05/12 06:36:25;;;;;;;25.25;11.75;;;;;;;15.96;70.90;101856.88;5034902;28;20044;-48
2022/05/12 06:38:51;;;;;;;22.33;12.23;;;;;;;16.06;70.54;101851.88;5044392;28;20033;-50
2022/05/12 06:41:17;;;;;;;28.05;12.63;;;;;;;16.22;70.01;101844.44;5044616;28;20043;-45
2022/05/12 06:43:45;;;;;;;19.25;10.93;;;;;;;16.24;69.51;101850.50;5046113;28;20820;-46
2022/05/12 06:46:12;;;;;;;20.48;10.63;;;;;;;16.34;68.86;101857.66;5040833;28;20041;-47
2022/05/12 06:48:38;;;;;;;19.13;10.55;;;;;;;16.38;68.04;101864.66;5040880;28;20029;-45
2022/05/12 06:51:03;;;;;;;17.90;10.00;;;;;;;16.48;67.59;101858.78;5044071;28;20451;-46
2022/05/12 06:53:29;;;;;;;18.48;10.23;;;;;;;16.57;67.33;101864.19;5045673;28;20037;-47
2022/05/12 06:55:55;;;;;;;21.42;10.23;;;;;;;16.57;66.69;101865.91;5041217;28;20064;-45
2022/05/12 06:58:20;;;;;;;19.60;9.95;;;;;;;16.57;66.48;101869.38;5056918;28;20479;-46
2022/05/12 07:00:46;;;;;;;19.40;10.27;;;;;;;16.50;66.07;101864.00;5044134;28;20044;-48
2022/05/12 07:03:13;;;;;;;18.20;9.93;;;;;;;16.49;66.21;101870.06;5040210;28;20025;-46
2022/05/12 07:05:40;;;;;;;20.58;10.57;;;;;;;16.48;66.44;101874.38;5042213;28;20029;-49
2022/05/12 07:08:07;;;;;;;20.73;10.68;;;;;;;16.44;66.41;101871.69;5042401;28;20058;-47
2022/05/12 07:10:32;;;;;;;18.48;10.10;;;;;;;16.41;66.59;101890.69;5040118;28;20059;-46
2022/05/12 07:12:58;;;;;;;19.15;10.32;;;;;;;16.38;66.63;101892.31;5041448;28;20037;-47
2022/05/12 07:15:27;;;;;;;19.23;9.23;;;;;;;16.40;66.72;101878.53;5045697;28;20059;-47
2022/05/12 07:17:57;;;;;;;17.90;9.50;;;;;;;16.45;66.61;101882.13;5045247;28;20049;-47
2022/05/12 07:28:38;;;;;;;15.52;8.10;;;;;;;16.93;64.34;101899.53;5043108;28;20054;-45
2022/05/12 07:31:05;;;;;;;14.50;7.20;;;;;;;17.04;62.81;101903.16;5044741;28;20462;-45
2022/05/12 07:33:34;;;;;;;13.98;6.90;;;;;;;17.23;62.76;101901.78;5048690;28;20025;-47
2022/05/12 07:36:01;;;;;;;14.50;7.20;;;;;;;17.37;62.25;101899.41;5047691;28;20020;-48
2022/05/12 07:38:27;;;;;;;13.30;6.97;;;;;;;17.44;59.79;101893.47;5042174;28;20061;-50
2022/05/12 07:40:53;;;;;;;14.52;5.97;;;;;;;17.61;59.15;101902.41;5047985;28;21161;-47
2022/05/12 07:43:19;;;;;;;13.63;6.47;;;;;;;17.60;58.25;101894.59;5043330;28;20033;-49
2022/05/12 07:45:44;;;;;;;10.68;5.85;;;;;;;17.78;58.88;101901.84;5044099;28;20036;-46
2022/05/12 07:48:11;;;;;;;11.43;5.70;;;;;;;17.83;57.50;101907.97;5047469;28;20063;-48
2022/05/12 07:50:37;;;;;;;14.07;6.32;;;;;;;17.87;57.08;101904.56;5044807;28;20393;-48
2022/05/12 07:53:02;;;;;;;13.65;6.80;;;;;;;17.99;57.90;101911.69;5045401;28;20039;-46
2022/05/12 07:55:27;;;;;;;12.85;5.53;;;;;;;18.07;56.68;101908.31;5043864;28;20041;-46
2022/05/12 07:57:53;;;;;;;10.15;4.45;;;;;;;18.16;55.85;101911.06;5045314;28;20025;-48
2022/05/12 08:00:18;;;;;;;8.90;4.05;;;;;;;18.29;54.07;101916.44;5041262;28;20447;-50
2022/05/12 08:02:44;;;;;;;9.60;4.45;;;;;;;18.34;54.27;101919.97;5044237;28;20025;-47
2022/05/12 08:05:10;;;;;;;8.88;4.38;;;;;;;18.40;53.75;101918.31;5045199;28;20033;-48
2022/05/12 08:07:35;;;;;;;9.82;4.28;;;;;;;18.49;53.43;101913.19;5040825;28;20036;-48
2022/05/12 08:10:01;;;;;;;10.77;4.30;;;;;;;18.44;53.18;101924.41;5044065;28;20481;-47
2022/05/12 08:12:28;;;;;;;11.38;3.83;;;;;;;18.39;53.66;101918.31;5043446;28;20036;-48
2022/05/12 08:14:53;;;;;;;8.30;3.88;;;;;;;18.25;53.12;101931.13;5044234;28;20531;-47
2022/05/12 08:17:19;;;;;;;8.70;3.83;;;;;;;18.15;52.13;101930.13;5045601;28;20028;-48
2022/05/12 08:19:45;;;;;;;9.10;3.58;;;;;;;18.12;50.43;101930.06;5045375;28;20071;-47
2022/05/12 08:22:10;;;;;;;6.68;3.25;;;;;;;18.23;50.32;101927.63;5048505;28;20025;-51
2022/05/12 08:24:35;;;;;;;8.85;3.30;;;;;;;18.41;51.02;101927.00;5049397;28;20144;-47
2022/05/12 08:27:01;;;;;;;10.77;3.15;;;;;;;18.47;50.23;101933.16;5044332;28;20472;-46
2022/05/12 08:29:27;;;;;;;9.07;2.70;;;;;;;18.54;50.01;101930.63;5045582;28;20048;-46
2022/05/12 08:31:52;;;;;;;7.47;2.38;;;;;;;18.40;48.47;101930.47;5045818;28;20028;-49
2022/05/12 08:34:17;;;;;;;6.15;2.60;;;;;;;18.35;48.32;101933.00;5039979;28;20492;-48
2022/05/12 08:36:43;;;;;;;7.25;2.40;;;;;;;18.28;49.02;101930.31;5038268;28;20207;-46
2022/05/12 08:39:08;;;;;;;6.53;2.50;;;;;;;18.41;48.93;101927.88;5037527;28;20162;-48
2022/05/12 08:41:42;;;;;;;6.03;2.28;;;;;;;18.57;46.86;101931.56;5040473;28;20107;-48
2022/05/12 08:44:13;;;;;;;6.80;2.10;;;;;;;18.73;46.90;101927.41;5042651;28;20493;-50
2022/05/12 08:46:53;;;;;;;8.25;2.40;;;;;;;18.80;46.59;101929.22;5039325;28;20041;-49
2022/05/12 08:49:30;;;;;;;4.60;1.83;;;;;;;18.74;46.18;101926.53;5036640;28;20033;-48
2022/05/12 08:52:17;;;;;;;6.03;2.05;;;;;;;18.80;46.60;101929.22;5053700;28;20120;-50
2022/05/12 08:55:21;;;;;;;5.80;1.80;;;;;;;18.78;46.56;101932.69;5036935;28;20036;-49
2022/05/12 08:58:27;;;;;;;5.43;2.03;;;;;;;18.71;47.20;101929.13;5021990;28;20060;-47
2022/05/12 09:01:20;;;;;;;4.63;1.85;;;;;;;18.57;46.13;101936.75;5041251;28;20028;-50
2022/05/12 09:04:17;;;;;;;5.68;1.90;;;;;;;18.71;46.28;101940.44;5037003;28;20727;-46
2022/05/12 09:07:02;;;;;;;3.97;1.73;;;;;;;18.87;45.63;101936.28;5041609;28;20108;-47
2022/05/12 09:09:39;;;;;;;6.63;1.95;;;;;;;18.88;44.90;101939.75;5033891;28;20037;-48
2022/05/12 09:12:10;;;;;;;5.50;1.67;;;;;;;18.81;43.41;101945.72;5040363;28;20037;-47
2022/05/12 09:14:47;;;;;;;6.28;1.48;;;;;;;18.97;43.90;101952.88;5040258;28;20038;-49
2022/05/12 09:17:19;;;;;;;6.93;1.92;;;;;;;18.99;43.77;101949.44;5039699;28;20104;-45
2022/05/12 09:19:44;;;;;;;5.20;1.80;;;;;;;18.98;44.58;101952.00;5038559;28;20032;-49
2022/05/12 09:22:10;;;;;;;7.20;2.10;;;;;;;18.96;44.18;101945.91;5040125;28;20859;-50
2022/05/12 09:24:38;;;;;;;4.28;1.77;;;;;;;19.03;44.39;101948.59;5036233;28;20041;-49
2022/05/12 09:27:09;;;;;;;5.55;1.83;;;;;;;19.08;43.88;101943.44;5038277;28;20040;-47
2022/05/12 09:29:49;;;;;;;4.13;1.60;;;;;;;19.06;44.03;101945.16;5037912;28;20099;-49
2022/05/12 09:32:17;;;;;;;4.78;1.55;;;;;;;18.97;42.38;101947.66;5037669;28;20028;-47
2022/05/12 09:34:46;;;;;;;8.05;1.67;;;;;;;18.92;42.75;101945.00;5040760;28;20095;-47
2022/05/12 09:37:20;;;;;;;6.82;1.58;;;;;;;18.93;43.51;101951.09;5045899;28;20567;-49
2022/05/12 09:39:51;;;;;;;4.75;1.60;;;;;;;18.85;44.02;101945.78;5041121;28;20087;-48
2022/05/12 09:42:28;;;;;;;7.20;1.65;;;;;;;18.86;44.52;101949.25;5044746;28;20025;-48
2022/05/12 09:45:07;;;;;;;5.75;1.67;;;;;;;18.99;43.00;101940.75;5039384;28;20082;-49
2022/05/12 09:47:34;;;;;;;5.68;1.77;;;;;;;19.21;42.93;101939.22;5046431;28;20473;-48
2022/05/12 09:50:16;;;;;;;8.40;1.48;;;;;;;19.42;42.48;101934.22;5048358;28;20032;-47
2022/05/12 09:52:43;;;;;;;7.82;1.40;;;;;;;19.63;41.14;101930.91;5042187;28;20037;-47
2022/05/12 09:55:17;;;;;;;2.65;1.15;;;;;;;19.85;40.65;101931.09;5042402;28;20473;-47
2022/05/12 09:57:50;;;;;;;4.93;1.45;;;;;;;19.99;40.85;101930.31;5043842;28;20040;-48
2022/05/12 10:00:44;;;;;;;5.55;1.50;;;;;;;20.18;41.35;101926.06;5040265;28;20025;-47
2022/05/12 10:09:23;;;;;;;4.63;1.38;;;;;;;20.40;39.71;101929.66;5040310;28;20055;-48
2022/05/12 10:11:53;;;;;;;5.32;1.50;;;;;;;20.29;39.41;101936.56;5041053;28;20032;-51
2022/05/12 10:14:29;;;;;;;4.93;1.63;;;;;;;20.36;39.26;101933.97;5039168;28;20375;-49
2022/05/12 10:16:57;;;;;;;5.68;1.40;;;;;;;20.48;38.02;101925.34;5044040;28;20040;-49
2022/05/12 10:19:24;;;;;;;5.43;1.40;;;;;;;20.68;38.42;101922.81;5040305;28;20507;-50
2022/05/12 10:21:59;;;;;;;4.97;1.52;;;;;;;20.95;38.87;101926.38;5045462;28;20033;-48
2022/05/12 10:24:52;;;;;;;4.40;1.65;;;;;;;20.98;38.48;101924.63;5043847;28;20773;-50
2022/05/12 10:27:42;;;;;;;4.25;1.40;;;;;;;20.86;38.19;101924.59;5043565;28;20040;-49
2022/05/12 10:30:27;;;;;;;4.53;1.50;;;;;;;20.66;38.82;101934.13;5045318;28;20142;-48
2022/05/12 10:33:06;;;;;;;3.33;1.38;;;;;;;20.69;37.49;101929.81;5044243;28;20028;-50
2022/05/12 10:35:59;;;;;;;5.45;1.48;;;;;;;20.91;37.49;101924.63;5043627;28;20078;-50
2022/05/12 10:38:34;;;;;;;8.23;1.63;;;;;;;20.91;37.99;101919.38;5045476;28;20033;-50
2022/05/12 10:41:18;;;;;;;5.75;1.50;;;;;;;20.75;38.52;101927.22;5043218;28;20067;-49
2022/05/12 10:43:45;;;;;;;6.20;1.73;;;;;;;20.60;38.64;101932.38;5045142;28;20028;-50
2022/05/12 10:46:39;;;;;;;6.03;1.20;;;;;;;20.59;38.70;101928.88;5047165;28;20028;-50
2022/05/12 10:49:14;;;;;;;6.95;1.30;;;;;;;20.56;37.81;101926.25;5040586;28;20166;-48
2022/05/12 10:52:12;;;;;;;4.43;1.10;;;;;;;20.55;37.94;101921.91;5043716;28;20047;-48
2022/05/12 10:55:32;;;;;;;5.10;1.40;;;;;;;20.50;38.31;101927.97;5043885;28;20025;-49
2022/05/12 10:58:35;;;;;;;6.00;1.40;;;;;;;20.47;37.81;101928.84;4999737;28;20793;-46
2022/05/12 11:01:13;;;;;;;4.55;1.30;;;;;;;20.50;37.52;101922.75;5040953;28;20112;-49
2022/05/12 11:03:59;;;;;;;4.15;1.30;;;;;;;20.41;36.09;101928.78;5044601;28;20094;-48
2022/05/12 11:06:31;;;;;;;3.00;1.10;;;;;;;20.24;36.06;101930.44;5040541;28;20064;-49
2022/05/12 11:09:05;;;;;;;5.30;1.10;;;;;;;20.19;36.65;101924.31;5052094;28;20067;-47
2022/05/12 11:11:39;;;;;;;4.75;1.20;;;;;;;20.24;36.78;101918.25;5045707;28;20024;-47
2022/05/12 11:14:13;;;;;;;5.75;1.38;;;;;;;20.22;36.57;101919.13;5045335;28;20060;-48
2022/05/12 11:17:00;;;;;;;5.00;1.42;;;;;;;20.26;37.32;101913.94;5047216;28;20044;-50
2022/05/12 11:19:26;;;;;;;5.50;1.30;;;;;;;20.23;37.36;101921.72;5047878;28;20120;-48
2022/05/12 11:22:05;;;;;;;3.60;1.20;;;;;;;20.37;37.05;101908.72;5045936;28;20112;-48
2022/05/12 11:24:55;;;;;;;4.35;1.30;;;;;;;20.68;37.59;101901.91;5047332;28;20499;-47
2022/05/12 11:27:33;;;;;;;4.72;1.27;;;;;;;21.00;37.21;101898.50;5047792;28;20108;-49
2022/05/12 11:30:20;;;;;;;3.43;1.27;;;;;;;21.27;36.04;101903.75;5047399;28;20045;-49
2022/05/12 11:33:09;;;;;;;4.47;1.70;;;;;;;21.40;34.97;101897.66;5047365;28;20297;-49
2022/05/12 11:35:43;;;;;;;3.00;1.00;;;;;;;21.39;34.51;101902.91;5049861;28;20036;-47
2022/05/12 11:38:29;;;;;;;3.80;1.10;;;;;;;21.21;34.77;101897.66;5048217;28;20025;-48
2022/05/12 11:40:55;;;;;;;2.55;1.10;;;;;;;21.10;34.71;101897.63;5044798;28;20036;-48
2022/05/12 11:46:35;;;;;;;3.97;1.42;;;;;;;20.91;35.67;101901.97;5045696;28;20101;-51
2022/05/12 11:49:06;;;;;;;4.65;1.35;;;;;;;20.73;34.32;101901.91;5045767;28;20063;-51
2022/05/12 11:52:08;;;;;;;3.15;1.10;;;;;;;20.88;35.98;101892.38;5047847;28;20477;-49
2022/05/12 11:54:52;;;;;;;4.88;1.63;;;;;;;20.94;34.71;101893.28;5047233;28;20029;-48
2022/05/12 11:57:24;;;;;;;6.05;1.50;;;;;;;21.07;35.12;101892.41;5044861;28;20116;-47